sensor_id;sensor_type;location;lat;lon;timestamp;P1;durP1;ratioP1;P2;durP2;ratioP2
59972;SDS011;55298;-36.624;-64.282;2024-03-25T00:00:34;8.07;;;6.50;;
59972;SDS011;55298;-36.624;-64.282;2024-03-25T00:03:01;8.45;;;6.78;;
59972;SDS011;55298;-36.624;-64.282;2024-03-25T00:05:31;10.10;;;4.63;;
59972;SDS011;55298;-36.624;-64.282;2024-03-25T00:08:03;5.60;;;3.45;;
59972;SDS011;55298;-36.624;-64.282;2024-03-25T00:10:31;7.93;;;2.88;;
59972;SDS011;55298;-36.624;-64.282;2024-03-25T00:12:59;8.05;;;4.30;;
59972;SDS011;55298;-36.624;-64.282;2024-03-25T00:15:27;9.45;;;6.20;;
59972;SDS011;55298;-36.624;-64.282;2024-03-25T00:17:54;6.28;;;4.43;;
59972;SDS011;55298;-36.624;-64.282;2024-03-25T00:20:22;6.07;;;4.40;;
59972;SDS011;55298;-36.624;-64.282;2024-03-25T00:22:50;7.57;;;5.10;;
59972;SDS011;55298;-36.624;-64.282;2024-03-25T00:25:18;8.75;;;5.57;;
59972;SDS011;55298;-36.624;-64.282;2024-03-25T00:27:50;9.52;;;5.50;;
59972;SDS011;55298;-36.624;-64.282;2024-03-25T00:30:19;4.97;;;3.55;;
59972;SDS011;55298;-36.624;-64.282;2024-03-25T00:32:47;3.65;;;2.10;;
59972;SDS011;55298;-36.624;-64.282;2024-03-25T00:35:14;4.38;;;2.25;;
59972;SDS011;55298;-36.624;-64.282;2024-03-25T00:37:43;3.33;;;2.28;;
59972;SDS011;55298;-36.624;-64.282;2024-03-25T00:40:13;5.63;;;2.50;;
59972;SDS011;55298;-36.624;-64.282;2024-03-25T00:42:41;3.88;;;2.55;;
59972;SDS011;55298;-36.624;-64.282;2024-03-25T00:45:09;4.78;;;2.85;;
59972;SDS011;55298;-36.624;-64.282;2024-03-25T00:47:36;3.80;;;3.20;;
59972;SDS011;55298;-36.624;-64.282;2024-03-25T00:50:04;2.70;;;2.50;;
59972;SDS011;55298;-36.624;-64.282;2024-03-25T00:52:33;5.70;;;2.85;;
59972;SDS011;55298;-36.624;-64.282;2024-03-25T00:55:01;3.60;;;2.13;;
59972;SDS011;55298;-36.624;-64.282;2024-03-25T00:57:29;3.65;;;2.00;;
59972;SDS011;55298;-36.624;-64.282;2024-03-25T00:59:58;4.20;;;3.35;;
59972;SDS011;55298;-36.624;-64.282;2024-03-25T01:02:26;9.50;;;8.38;;
59972;SDS011;55298;-36.624;-64.282;2024-03-25T01:04:54;13.55;;;9.85;;
59972;SDS011;55298;-36.624;-64.282;2024-03-25T01:07:22;12.07;;;9.20;;
59972;SDS011;55298;-36.624;-64.282;2024-03-25T01:09:49;10.60;;;7.13;;
59972;SDS011;55298;-36.624;-64.282;2024-03-25T01:12:17;9.50;;;7.35;;
59972;SDS011;55298;-36.624;-64.282;2024-03-25T01:14:45;9.77;;;7.03;;
59972;SDS011;55298;-36.624;-64.282;2024-03-25T01:17:12;10.82;;;9.13;;
59972;SDS011;55298;-36.624;-64.282;2024-03-25T01:19:40;9.63;;;7.50;;
59972;SDS011;55298;-36.624;-64.282;2024-03-25T01:22:08;9.32;;;6.60;;
59972;SDS011;55298;-36.624;-64.282;2024-03-25T01:24:36;7.30;;;5.72;;
59972;SDS011;55298;-36.624;-64.282;2024-03-25T01:27:04;8.48;;;5.22;;
59972;SDS011;55298;-36.624;-64.282;2024-03-25T01:29:32;5.50;;;3.28;;
59972;SDS011;55298;-36.624;-64.282;2024-03-25T01:32:00;5.15;;;2.00;;
59972;SDS011;55298;-36.624;-64.282;2024-03-25T01:34:28;2.28;;;1.58;;
59972;SDS011;55298;-36.624;-64.282;2024-03-25T01:36:56;4.32;;;1.50;;
59972;SDS011;55298;-36.624;-64.282;2024-03-25T01:39:24;3.83;;;1.77;;
59972;SDS011;55298;-36.624;-64.282;2024-03-25T01:41:51;2.83;;;1.90;;
59972;SDS011;55298;-36.624;-64.282;2024-03-25T01:44:20;1.83;;;1.58;;
59972;SDS011;55298;-36.624;-64.282;2024-03-25T01:46:48;3.20;;;1.65;;
59972;SDS011;55298;-36.624;-64.282;2024-03-25T01:49:18;1.88;;;1.63;;
59972;SDS011;55298;-36.624;-64.282;2024-03-25T01:51:46;2.75;;;1.90;;
59972;SDS011;55298;-36.624;-64.282;2024-03-25T01:54:14;3.33;;;1.70;;
59972;SDS011;55298;-36.624;-64.282;2024-03-25T01:56:42;2.03;;;1.60;;
59972;SDS011;55298;-36.624;-64.282;2024-03-25T01:59:12;1.95;;;1.65;;
59972;SDS011;55298;-36.624;-64.282;2024-03-25T02:01:43;2.25;;;1.73;;
59972;SDS011;55298;-36.624;-64.282;2024-03-25T02:04:12;1.80;;;1.70;;
59972;SDS011;55298;-36.624;-64.282;2024-03-25T02:06:40;2.50;;;2.00;;
59972;SDS011;55298;-36.624;-64.282;2024-03-25T02:09:09;3.60;;;2.85;;
59972;SDS011;55298;-36.624;-64.282;2024-03-25T02:11:39;5.30;;;3.95;;
59972;SDS011;55298;-36.624;-64.282;2024-03-25T02:14:07;5.60;;;5.00;;
59972;SDS011;55298;-36.624;-64.282;2024-03-25T02:16:35;9.63;;;7.30;;
59972;SDS011;55298;-36.624;-64.282;2024-03-25T02:19:03;10.75;;;8.32;;
59972;SDS011;55298;-36.624;-64.282;2024-03-25T02:21:31;10.32;;;6.68;;
59972;SDS011;55298;-36.624;-64.282;2024-03-25T02:23:59;9.32;;;5.45;;
59972;SDS011;55298;-36.624;-64.282;2024-03-25T02:26:32;9.05;;;5.55;;
59972;SDS011;55298;-36.624;-64.282;2024-03-25T02:29:00;9.18;;;6.00;;
59972;SDS011;55298;-36.624;-64.282;2024-03-25T02:31:28;8.75;;;5.55;;
59972;SDS011;55298;-36.624;-64.282;2024-03-25T02:33:56;7.97;;;5.28;;
59972;SDS011;55298;-36.624;-64.282;2024-03-25T02:36:24;6.15;;;4.63;;
59972;SDS011;55298;-36.624;-64.282;2024-03-25T02:38:52;7.28;;;5.60;;
59972;SDS011;55298;-36.624;-64.282;2024-03-25T02:41:20;5.93;;;5.40;;
59972;SDS011;55298;-36.624;-64.282;2024-03-25T02:43:50;7.85;;;5.70;;
59972;SDS011;55298;-36.624;-64.282;2024-03-25T02:46:18;9.60;;;5.30;;
59972;SDS011;55298;-36.624;-64.282;2024-03-25T02:48:46;7.43;;;5.53;;
59972;SDS011;55298;-36.624;-64.282;2024-03-25T02:51:13;11.32;;;6.63;;
59972;SDS011;55298;-36.624;-64.282;2024-03-25T02:53:42;9.70;;;6.38;;
59972;SDS011;55298;-36.624;-64.282;2024-03-25T02:56:10;10.57;;;5.90;;
59972;SDS011;55298;-36.624;-64.282;2024-03-25T02:58:40;9.55;;;4.95;;
59972;SDS011;55298;-36.624;-64.282;2024-03-25T03:01:08;4.15;;;3.22;;
59972;SDS011;55298;-36.624;-64.282;2024-03-25T03:03:36;4.90;;;3.78;;
59972;SDS011;55298;-36.624;-64.282;2024-03-25T03:06:04;18.20;;;5.10;;
59972;SDS011;55298;-36.624;-64.282;2024-03-25T03:08:32;11.50;;;5.20;;
59972;SDS011;55298;-36.624;-64.282;2024-03-25T03:11:00;13.38;;;5.05;;
59972;SDS011;55298;-36.624;-64.282;2024-03-25T03:13:27;8.38;;;4.68;;
59972;SDS011;55298;-36.624;-64.282;2024-03-25T03:15:55;9.00;;;3.67;;
59972;SDS011;55298;-36.624;-64.282;2024-03-25T03:18:23;9.95;;;3.80;;
59972;SDS011;55298;-36.624;-64.282;2024-03-25T03:20:50;9.93;;;3.75;;
59972;SDS011;55298;-36.624;-64.282;2024-03-25T03:23:21;5.97;;;3.20;;
59972;SDS011;55298;-36.624;-64.282;2024-03-25T03:25:49;6.03;;;3.33;;
59972;SDS011;55298;-36.624;-64.282;2024-03-25T03:28:17;5.57;;;2.92;;
59972;SDS011;55298;-36.624;-64.282;2024-03-25T03:30:45;4.68;;;2.85;;
59972;SDS011;55298;-36.624;-64.282;2024-03-25T03:33:13;7.35;;;3.58;;
59972;SDS011;55298;-36.624;-64.282;2024-03-25T03:35:42;8.65;;;4.13;;
59972;SDS011;55298;-36.624;-64.282;2024-03-25T03:38:09;7.70;;;3.33;;
59972;SDS011;55298;-36.624;-64.282;2024-03-25T03:40:37;6.57;;;3.50;;
59972;SDS011;55298;-36.624;-64.282;2024-03-25T03:43:05;6.80;;;4.07;;
59972;SDS011;55298;-36.624;-64.282;2024-03-25T03:45:33;8.15;;;4.10;;
59972;SDS011;55298;-36.624;-64.282;2024-03-25T03:48:01;7.03;;;3.90;;
59972;SDS011;55298;-36.624;-64.282;2024-03-25T03:50:30;6.80;;;3.38;;
59972;SDS011;55298;-36.624;-64.282;2024-03-25T03:52:58;6.32;;;3.80;;
59972;SDS011;55298;-36.624;-64.282;2024-03-25T03:55:25;6.07;;;3.65;;
59972;SDS011;55298;-36.624;-64.282;2024-03-25T03:57:53;6.68;;;3.70;;
59972;SDS011;55298;-36.624;-64.282;2024-03-25T04:00:21;10.50;;;4.00;;
59972;SDS011;55298;-36.624;-64.282;2024-03-25T04:02:49;7.30;;;3.63;;
59972;SDS011;55298;-36.624;-64.282;2024-03-25T04:05:17;5.93;;;3.80;;
59972;SDS011;55298;-36.624;-64.282;2024-03-25T04:07:45;7.65;;;4.32;;
59972;SDS011;55298;-36.624;-64.282;2024-03-25T04:10:12;9.20;;;4.90;;
59972;SDS011;55298;-36.624;-64.282;2024-03-25T04:12:41;10.77;;;4.70;;
59972;SDS011;55298;-36.624;-64.282;2024-03-25T04:15:08;10.05;;;4.25;;
59972;SDS011;55298;-36.624;-64.282;2024-03-25T04:17:44;13.02;;;5.18;;
59972;SDS011;55298;-36.624;-64.282;2024-03-25T04:20:14;9.57;;;4.88;;
59972;SDS011;55298;-36.624;-64.282;2024-03-25T04:22:42;14.80;;;5.35;;
59972;SDS011;55298;-36.624;-64.282;2024-03-25T04:25:10;10.68;;;4.95;;
59972;SDS011;55298;-36.624;-64.282;2024-03-25T04:27:40;8.57;;;4.30;;
59972;SDS011;55298;-36.624;-64.282;2024-03-25T04:30:09;7.85;;;4.47;;
59972;SDS011;55298;-36.624;-64.282;2024-03-25T04:32:38;6.50;;;4.05;;
59972;SDS011;55298;-36.624;-64.282;2024-03-25T04:35:06;7.63;;;3.72;;
59972;SDS011;55298;-36.624;-64.282;2024-03-25T04:37:35;5.68;;;3.47;;
59972;SDS011;55298;-36.624;-64.282;2024-03-25T04:40:03;5.97;;;3.25;;
59972;SDS011;55298;-36.624;-64.282;2024-03-25T04:42:31;3.47;;;2.88;;
59972;SDS011;55298;-36.624;-64.282;2024-03-25T04:44:58;4.13;;;2.50;;
59972;SDS011;55298;-36.624;-64.282;2024-03-25T04:47:26;4.15;;;2.38;;
59972;SDS011;55298;-36.624;-64.282;2024-03-25T04:49:55;4.28;;;2.40;;
59972;SDS011;55298;-36.624;-64.282;2024-03-25T04:52:23;3.05;;;2.20;;
59972;SDS011;55298;-36.624;-64.282;2024-03-25T04:54:51;2.28;;;2.08;;
59972;SDS011;55298;-36.624;-64.282;2024-03-25T04:57:19;2.42;;;1.52;;
59972;SDS011;55298;-36.624;-64.282;2024-03-25T04:59:47;1.98;;;1.40;;
59972;SDS011;55298;-36.624;-64.282;2024-03-25T05:02:14;1.65;;;1.30;;
59972;SDS011;55298;-36.624;-64.282;2024-03-25T05:04:42;1.80;;;1.50;;
59972;SDS011;55298;-36.624;-64.282;2024-03-25T05:07:09;3.20;;;1.60;;
59972;SDS011;55298;-36.624;-64.282;2024-03-25T05:09:37;3.17;;;1.67;;
59972;SDS011;55298;-36.624;-64.282;2024-03-25T05:12:05;4.18;;;1.40;;
59972;SDS011;55298;-36.624;-64.282;2024-03-25T05:14:33;1.83;;;1.40;;
59972;SDS011;55298;-36.624;-64.282;2024-03-25T05:17:00;1.77;;;1.38;;
59972;SDS011;55298;-36.624;-64.282;2024-03-25T05:19:31;1.50;;;1.40;;
59972;SDS011;55298;-36.624;-64.282;2024-03-25T05:21:59;1.50;;;1.40;;
59972;SDS011;55298;-36.624;-64.282;2024-03-25T05:24:26;2.83;;;1.50;;
59972;SDS011;55298;-36.624;-64.282;2024-03-25T05:26:54;2.35;;;1.40;;
59972;SDS011;55298;-36.624;-64.282;2024-03-25T05:29:22;4.72;;;1.40;;
59972;SDS011;55298;-36.624;-64.282;2024-03-25T05:34:27;1.98;;;1.40;;
59972;SDS011;55298;-36.624;-64.282;2024-03-25T05:36:57;2.25;;;1.70;;
59972;SDS011;55298;-36.624;-64.282;2024-03-25T05:39:25;2.13;;;1.70;;
59972;SDS011;55298;-36.624;-64.282;2024-03-25T05:41:52;1.65;;;1.55;;
59972;SDS011;55298;-36.624;-64.282;2024-03-25T05:44:20;1.52;;;1.42;;
59972;SDS011;55298;-36.624;-64.282;2024-03-25T05:46:48;1.70;;;1.60;;
59972;SDS011;55298;-36.624;-64.282;2024-03-25T05:49:15;1.60;;;1.50;;
59972;SDS011;55298;-36.624;-64.282;2024-03-25T05:51:43;2.22;;;1.50;;
59972;SDS011;55298;-36.624;-64.282;2024-03-25T05:54:10;2.03;;;1.58;;
59972;SDS011;55298;-36.624;-64.282;2024-03-25T05:56:38;2.50;;;1.70;;
59972;SDS011;55298;-36.624;-64.282;2024-03-25T05:59:06;2.40;;;1.55;;
59972;SDS011;55298;-36.624;-64.282;2024-03-25T06:01:33;2.88;;;1.80;;
59972;SDS011;55298;-36.624;-64.282;2024-03-25T06:04:03;2.90;;;1.70;;
59972;SDS011;55298;-36.624;-64.282;2024-03-25T06:06:31;1.92;;;1.83;;
59972;SDS011;55298;-36.624;-64.282;2024-03-25T06:08:58;1.67;;;1.60;;
59972;SDS011;55298;-36.624;-64.282;2024-03-25T06:11:26;2.30;;;1.80;;
59972;SDS011;55298;-36.624;-64.282;2024-03-25T06:13:55;2.80;;;1.73;;
59972;SDS011;55298;-36.624;-64.282;2024-03-25T06:16:23;3.88;;;1.90;;
59972;SDS011;55298;-36.624;-64.282;2024-03-25T06:18:50;1.70;;;1.60;;
59972;SDS011;55298;-36.624;-64.282;2024-03-25T06:21:18;4.55;;;2.00;;
59972;SDS011;55298;-36.624;-64.282;2024-03-25T06:23:46;4.88;;;1.60;;
59972;SDS011;55298;-36.624;-64.282;2024-03-25T06:26:16;1.80;;;1.70;;
59972;SDS011;55298;-36.624;-64.282;2024-03-25T06:28:44;2.97;;;1.80;;
59972;SDS011;55298;-36.624;-64.282;2024-03-25T06:31:15;1.85;;;1.70;;
59972;SDS011;55298;-36.624;-64.282;2024-03-25T06:39:36;1.83;;;1.70;;
59972;SDS011;55298;-36.624;-64.282;2024-03-25T06:42:04;2.10;;;1.92;;
59972;SDS011;55298;-36.624;-64.282;2024-03-25T06:44:33;2.08;;;1.90;;
59972;SDS011;55298;-36.624;-64.282;2024-03-25T06:47:02;2.47;;;1.73;;
59972;SDS011;55298;-36.624;-64.282;2024-03-25T06:49:33;1.98;;;1.80;;
59972;SDS011;55298;-36.624;-64.282;2024-03-25T06:52:01;2.15;;;1.90;;
59972;SDS011;55298;-36.624;-64.282;2024-03-25T06:54:29;2.85;;;1.90;;
59972;SDS011;55298;-36.624;-64.282;2024-03-25T06:56:57;1.85;;;1.75;;
59972;SDS011;55298;-36.624;-64.282;2024-03-25T06:59:28;1.75;;;1.65;;
59972;SDS011;55298;-36.624;-64.282;2024-03-25T07:02:24;2.13;;;1.92;;
59972;SDS011;55298;-36.624;-64.282;2024-03-25T07:04:51;3.08;;;1.75;;
59972;SDS011;55298;-36.624;-64.282;2024-03-25T07:07:19;2.10;;;1.83;;
59972;SDS011;55298;-36.624;-64.282;2024-03-25T07:09:47;1.75;;;1.70;;
59972;SDS011;55298;-36.624;-64.282;2024-03-25T07:12:15;1.90;;;1.80;;
59972;SDS011;55298;-36.624;-64.282;2024-03-25T07:14:43;2.67;;;1.80;;
59972;SDS011;55298;-36.624;-64.282;2024-03-25T07:17:11;2.65;;;2.05;;
59972;SDS011;55298;-36.624;-64.282;2024-03-25T07:19:39;2.47;;;1.70;;
59972;SDS011;55298;-36.624;-64.282;2024-03-25T07:22:06;1.98;;;1.88;;
59972;SDS011;55298;-36.624;-64.282;2024-03-25T07:24:34;1.80;;;1.70;;
59972;SDS011;55298;-36.624;-64.282;2024-03-25T07:27:02;2.55;;;1.85;;
59972;SDS011;55298;-36.624;-64.282;2024-03-25T07:29:29;3.00;;;2.10;;
59972;SDS011;55298;-36.624;-64.282;2024-03-25T07:31:57;1.95;;;1.75;;
59972;SDS011;55298;-36.624;-64.282;2024-03-25T07:34:25;4.25;;;2.00;;
59972;SDS011;55298;-36.624;-64.282;2024-03-25T07:36:52;1.80;;;1.70;;
59972;SDS011;55298;-36.624;-64.282;2024-03-25T07:39:20;3.15;;;1.80;;
59972;SDS011;55298;-36.624;-64.282;2024-03-25T07:41:50;1.80;;;1.70;;
59972;SDS011;55298;-36.624;-64.282;2024-03-25T07:44:18;4.28;;;1.73;;
59972;SDS011;55298;-36.624;-64.282;2024-03-25T07:46:46;3.35;;;2.00;;
59972;SDS011;55298;-36.624;-64.282;2024-03-25T07:49:14;2.28;;;1.70;;
59972;SDS011;55298;-36.624;-64.282;2024-03-25T07:51:41;1.88;;;1.77;;
59972;SDS011;55298;-36.624;-64.282;2024-03-25T07:54:09;3.70;;;2.33;;
59972;SDS011;55298;-36.624;-64.282;2024-03-25T07:56:39;2.20;;;1.90;;
59972;SDS011;55298;-36.624;-64.282;2024-03-25T07:59:07;4.22;;;2.00;;
59972;SDS011;55298;-36.624;-64.282;2024-03-25T08:01:35;1.80;;;1.70;;
59972;SDS011;55298;-36.624;-64.282;2024-03-25T08:04:03;3.20;;;2.00;;
59972;SDS011;55298;-36.624;-64.282;2024-03-25T08:06:31;2.28;;;2.10;;
59972;SDS011;55298;-36.624;-64.282;2024-03-25T08:08:59;2.83;;;2.28;;
59972;SDS011;55298;-36.624;-64.282;2024-03-25T08:11:29;1.73;;;1.63;;
59972;SDS011;55298;-36.624;-64.282;2024-03-25T09:08:29;2.20;;;2.10;;
59972;SDS011;55298;-36.624;-64.282;2024-03-25T09:11:19;2.88;;;2.47;;
59972;SDS011;55298;-36.624;-64.282;2024-03-25T09:14:01;2.28;;;2.10;;
59972;SDS011;55298;-36.624;-64.282;2024-03-25T09:16:31;2.20;;;2.10;;
59972;SDS011;55298;-36.624;-64.282;2024-03-25T09:19:01;2.17;;;1.90;;
59972;SDS011;55298;-36.624;-64.282;2024-03-25T09:21:38;2.30;;;2.20;;
59972;SDS011;55298;-36.624;-64.282;2024-03-25T09:24:06;2.63;;;2.30;;
59972;SDS011;55298;-36.624;-64.282;2024-03-25T09:26:34;2.53;;;2.33;;
59972;SDS011;55298;-36.624;-64.282;2024-03-25T09:29:02;2.85;;;2.55;;
59972;SDS011;55298;-36.624;-64.282;2024-03-25T09:31:29;2.28;;;2.10;;
59972;SDS011;55298;-36.624;-64.282;2024-03-25T09:33:57;4.43;;;2.70;;
59972;SDS011;55298;-36.624;-64.282;2024-03-25T09:36:25;2.50;;;2.40;;
59972;SDS011;55298;-36.624;-64.282;2024-03-25T09:38:53;3.13;;;2.35;;
59972;SDS011;55298;-36.624;-64.282;2024-03-25T09:41:23;2.33;;;2.22;;
59972;SDS011;55298;-36.624;-64.282;2024-03-25T09:43:58;2.10;;;1.92;;
59972;SDS011;55298;-36.624;-64.282;2024-03-25T09:46:26;2.13;;;2.03;;
59972;SDS011;55298;-36.624;-64.282;2024-03-25T09:48:54;2.60;;;2.40;;
59972;SDS011;55298;-36.624;-64.282;2024-03-25T09:51:21;2.60;;;2.40;;
59972;SDS011;55298;-36.624;-64.282;2024-03-25T09:53:49;4.53;;;3.42;;
59972;SDS011;55298;-36.624;-64.282;2024-03-25T09:56:17;3.38;;;3.03;;
59972;SDS011;55298;-36.624;-64.282;2024-03-25T09:58:45;3.25;;;2.60;;
59972;SDS011;55298;-36.624;-64.282;2024-03-25T10:01:12;3.17;;;2.97;;
59972;SDS011;55298;-36.624;-64.282;2024-03-25T10:03:41;3.45;;;3.10;;
59972;SDS011;55298;-36.624;-64.282;2024-03-25T10:06:09;3.25;;;2.95;;
59972;SDS011;55298;-36.624;-64.282;2024-03-25T10:08:37;3.70;;;3.50;;
59972;SDS011;55298;-36.624;-64.282;2024-03-25T10:11:05;4.38;;;3.97;;
59972;SDS011;55298;-36.624;-64.282;2024-03-25T10:13:32;3.03;;;2.78;;
59972;SDS011;55298;-36.624;-64.282;2024-03-25T10:16:00;3.60;;;3.30;;
59972;SDS011;55298;-36.624;-64.282;2024-03-25T10:18:29;3.08;;;2.85;;
59972;SDS011;55298;-36.624;-64.282;2024-03-25T10:20:56;3.00;;;2.80;;
59972;SDS011;55298;-36.624;-64.282;2024-03-25T10:23:24;2.72;;;2.53;;
59972;SDS011;55298;-36.624;-64.282;2024-03-25T10:25:55;3.05;;;2.80;;
59972;SDS011;55298;-36.624;-64.282;2024-03-25T10:28:25;3.00;;;2.60;;
59972;SDS011;55298;-36.624;-64.282;2024-03-25T10:30:54;5.97;;;3.45;;
59972;SDS011;55298;-36.624;-64.282;2024-03-25T10:33:31;3.65;;;3.28;;
59972;SDS011;55298;-36.624;-64.282;2024-03-25T10:36:01;4.22;;;3.83;;
59972;SDS011;55298;-36.624;-64.282;2024-03-25T10:38:32;2.80;;;2.70;;
59972;SDS011;55298;-36.624;-64.282;2024-03-25T10:41:18;4.97;;;2.70;;
59972;SDS011;55298;-36.624;-64.282;2024-03-25T10:43:48;4.88;;;2.88;;
59972;SDS011;55298;-36.624;-64.282;2024-03-25T10:46:19;2.97;;;2.60;;
59972;SDS011;55298;-36.624;-64.282;2024-03-25T10:48:58;3.63;;;3.17;;
59972;SDS011;55298;-36.624;-64.282;2024-03-25T10:51:37;3.58;;;2.88;;
59972;SDS011;55298;-36.624;-64.282;2024-03-25T10:54:10;3.20;;;2.90;;
59972;SDS011;55298;-36.624;-64.282;2024-03-25T10:56:41;2.78;;;2.47;;
59972;SDS011;55298;-36.624;-64.282;2024-03-25T10:59:13;3.80;;;3.05;;
59972;SDS011;55298;-36.624;-64.282;2024-03-25T11:01:46;2.83;;;2.38;;
59972;SDS011;55298;-36.624;-64.282;2024-03-25T11:04:14;3.17;;;2.90;;
59972;SDS011;55298;-36.624;-64.282;2024-03-25T11:06:50;4.78;;;2.22;;
59972;SDS011;55298;-36.624;-64.282;2024-03-25T11:09:35;2.63;;;2.50;;
59972;SDS011;55298;-36.624;-64.282;2024-03-25T11:12:10;3.45;;;2.40;;
59972;SDS011;55298;-36.624;-64.282;2024-03-25T11:14:39;2.33;;;2.17;;
59972;SDS011;55298;-36.624;-64.282;2024-03-25T11:19:36;2.13;;;1.92;;
59972;SDS011;55298;-36.624;-64.282;2024-03-25T11:22:08;3.13;;;2.72;;
59972;SDS011;55298;-36.624;-64.282;2024-03-25T11:27:06;2.88;;;2.00;;
59972;SDS011;55298;-36.624;-64.282;2024-03-25T11:29:35;2.85;;;1.75;;
59972;SDS011;55298;-36.624;-64.282;2024-03-25T11:32:04;2.15;;;2.00;;
59972;SDS011;55298;-36.624;-64.282;2024-03-25T11:34:35;2.08;;;1.80;;
59972;SDS011;55298;-36.624;-64.282;2024-03-25T11:37:03;2.97;;;1.70;;
59972;SDS011;55298;-36.624;-64.282;2024-03-25T11:39:34;1.80;;;1.70;;
59972;SDS011;55298;-36.624;-64.282;2024-03-25T11:42:15;1.77;;;1.63;;
59972;SDS011;55298;-36.624;-64.282;2024-03-25T11:44:55;2.05;;;1.65;;
59972;SDS011;55298;-36.624;-64.282;2024-03-25T11:49:57;1.70;;;1.60;;
59972;SDS011;55298;-36.624;-64.282;2024-03-25T11:52:30;2.30;;;2.10;;
59972;SDS011;55298;-36.624;-64.282;2024-03-25T11:54:58;1.67;;;1.58;;
59972;SDS011;55298;-36.624;-64.282;2024-03-25T11:57:26;2.00;;;1.77;;
59972;SDS011;55298;-36.624;-64.282;2024-03-25T11:59:54;1.60;;;1.52;;
59972;SDS011;55298;-36.624;-64.282;2024-03-25T12:02:25;1.73;;;1.65;;
59972;SDS011;55298;-36.624;-64.282;2024-03-25T12:04:54;2.05;;;1.80;;
59972;SDS011;55298;-36.624;-64.282;2024-03-25T12:07:26;2.28;;;1.60;;
59972;SDS011;55298;-36.624;-64.282;2024-03-25T12:09:55;2.00;;;1.52;;
59972;SDS011;55298;-36.624;-64.282;2024-03-25T12:12:32;2.35;;;1.73;;
59972;SDS011;55298;-36.624;-64.282;2024-03-25T12:15:02;2.47;;;1.73;;
59972;SDS011;55298;-36.624;-64.282;2024-03-25T12:17:33;1.92;;;1.65;;
59972;SDS011;55298;-36.624;-64.282;2024-03-25T12:20:06;1.50;;;1.35;;
59972;SDS011;55298;-36.624;-64.282;2024-03-25T12:22:36;1.63;;;1.52;;
59972;SDS011;55298;-36.624;-64.282;2024-03-25T12:25:05;2.78;;;1.60;;
59972;SDS011;55298;-36.624;-64.282;2024-03-25T12:27:38;2.42;;;1.50;;
59972;SDS011;55298;-36.624;-64.282;2024-03-25T12:30:08;2.30;;;1.60;;
59972;SDS011;55298;-36.624;-64.282;2024-03-25T12:32:37;2.03;;;1.50;;
59972;SDS011;55298;-36.624;-64.282;2024-03-25T12:35:08;3.45;;;1.55;;
59972;SDS011;55298;-36.624;-64.282;2024-03-25T12:37:39;1.77;;;1.35;;
59972;SDS011;55298;-36.624;-64.282;2024-03-25T12:40:12;1.23;;;1.20;;
59972;SDS011;55298;-36.624;-64.282;2024-03-25T12:42:53;3.33;;;1.30;;
59972;SDS011;55298;-36.624;-64.282;2024-03-25T12:45:21;1.30;;;1.30;;
59972;SDS011;55298;-36.624;-64.282;2024-03-25T12:47:50;2.40;;;1.35;;
59972;SDS011;55298;-36.624;-64.282;2024-03-25T12:50:20;2.25;;;1.50;;
59972;SDS011;55298;-36.624;-64.282;2024-03-25T12:52:52;2.70;;;1.90;;
59972;SDS011;55298;-36.624;-64.282;2024-03-25T12:55:20;1.48;;;1.40;;
59972;SDS011;55298;-36.624;-64.282;2024-03-25T12:57:48;2.40;;;1.40;;
59972;SDS011;55298;-36.624;-64.282;2024-03-25T13:00:19;1.02;;;1.02;;
59972;SDS011;55298;-36.624;-64.282;2024-03-25T13:02:46;1.20;;;1.20;;
59972;SDS011;55298;-36.624;-64.282;2024-03-25T13:05:21;1.40;;;1.23;;
59972;SDS011;55298;-36.624;-64.282;2024-03-25T13:07:56;2.40;;;1.15;;
59972;SDS011;55298;-36.624;-64.282;2024-03-25T13:10:37;7.25;;;1.48;;
59972;SDS011;55298;-36.624;-64.282;2024-03-25T13:13:12;1.70;;;1.25;;
59972;SDS011;55298;-36.624;-64.282;2024-03-25T13:15:42;2.90;;;1.15;;
59972;SDS011;55298;-36.624;-64.282;2024-03-25T13:18:11;2.78;;;1.17;;
59972;SDS011;55298;-36.624;-64.282;2024-03-25T13:20:40;1.35;;;1.25;;
59972;SDS011;55298;-36.624;-64.282;2024-03-25T13:23:11;1.58;;;1.23;;
59972;SDS011;55298;-36.624;-64.282;2024-03-25T13:25:44;2.17;;;1.50;;
59972;SDS011;55298;-36.624;-64.282;2024-03-25T13:28:12;3.15;;;1.25;;
59972;SDS011;55298;-36.624;-64.282;2024-03-25T13:30:43;1.48;;;1.38;;
59972;SDS011;55298;-36.624;-64.282;2024-03-25T13:33:11;2.33;;;1.90;;
59972;SDS011;55298;-36.624;-64.282;2024-03-25T13:35:42;1.85;;;1.20;;
59972;SDS011;55298;-36.624;-64.282;2024-03-25T13:38:10;1.67;;;1.15;;
59972;SDS011;55298;-36.624;-64.282;2024-03-25T13:40:46;1.42;;;1.20;;
59972;SDS011;55298;-36.624;-64.282;2024-03-25T13:43:14;5.60;;;1.85;;
59972;SDS011;55298;-36.624;-64.282;2024-03-25T13:45:46;1.55;;;1.25;;
59972;SDS011;55298;-36.624;-64.282;2024-03-25T13:48:17;3.70;;;1.30;;
59972;SDS011;55298;-36.624;-64.282;2024-03-25T13:50:52;1.17;;;1.05;;
59972;SDS011;55298;-36.624;-64.282;2024-03-25T13:53:26;1.27;;;1.08;;
59972;SDS011;55298;-36.624;-64.282;2024-03-25T13:56:08;2.17;;;1.35;;
59972;SDS011;55298;-36.624;-64.282;2024-03-25T13:58:38;1.58;;;1.10;;
59972;SDS011;55298;-36.624;-64.282;2024-03-25T14:01:07;1.13;;;1.02;;
59972;SDS011;55298;-36.624;-64.282;2024-03-25T14:03:35;2.70;;;0.98;;
59972;SDS011;55298;-36.624;-64.282;2024-03-25T14:06:05;1.77;;;1.15;;
59972;SDS011;55298;-36.624;-64.282;2024-03-25T14:08:38;3.35;;;1.60;;
59972;SDS011;55298;-36.624;-64.282;2024-03-25T14:11:09;1.27;;;1.17;;
59972;SDS011;55298;-36.624;-64.282;2024-03-25T14:13:38;2.05;;;1.10;;
59972;SDS011;55298;-36.624;-64.282;2024-03-25T14:18:34;1.50;;;0.90;;
59972;SDS011;55298;-36.624;-64.282;2024-03-25T14:21:02;3.60;;;1.05;;
59972;SDS011;55298;-36.624;-64.282;2024-03-25T14:23:31;1.17;;;1.00;;
59972;SDS011;55298;-36.624;-64.282;2024-03-25T14:26:10;1.52;;;1.05;;
59972;SDS011;55298;-36.624;-64.282;2024-03-25T14:28:40;1.33;;;0.98;;
59972;SDS011;55298;-36.624;-64.282;2024-03-25T14:31:10;1.45;;;1.20;;
59972;SDS011;55298;-36.624;-64.282;2024-03-25T14:33:41;2.65;;;1.33;;
59972;SDS011;55298;-36.624;-64.282;2024-03-25T14:36:08;2.42;;;2.20;;
59972;SDS011;55298;-36.624;-64.282;2024-03-25T14:38:37;2.28;;;1.00;;
59972;SDS011;55298;-36.624;-64.282;2024-03-25T14:41:05;3.42;;;1.20;;
59972;SDS011;55298;-36.624;-64.282;2024-03-25T14:43:32;2.53;;;1.33;;
59972;SDS011;55298;-36.624;-64.282;2024-03-25T14:46:00;1.17;;;0.98;;
59972;SDS011;55298;-36.624;-64.282;2024-03-25T14:48:29;2.63;;;1.00;;
59972;SDS011;55298;-36.624;-64.282;2024-03-25T14:50:57;2.05;;;1.13;;
59972;SDS011;55298;-36.624;-64.282;2024-03-25T14:53:27;3.47;;;1.33;;
59972;SDS011;55298;-36.624;-64.282;2024-03-25T14:55:55;3.63;;;2.30;;
59972;SDS011;55298;-36.624;-64.282;2024-03-25T14:58:22;3.15;;;1.20;;
59972;SDS011;55298;-36.624;-64.282;2024-03-25T15:00:50;0.95;;;0.93;;
59972;SDS011;55298;-36.624;-64.282;2024-03-25T15:03:18;1.27;;;1.08;;
59972;SDS011;55298;-36.624;-64.282;2024-03-25T15:05:50;3.35;;;1.30;;
59972;SDS011;55298;-36.624;-64.282;2024-03-25T15:08:19;3.13;;;1.30;;
59972;SDS011;55298;-36.624;-64.282;2024-03-25T15:10:48;1.52;;;1.10;;
59972;SDS011;55298;-36.624;-64.282;2024-03-25T15:13:16;2.88;;;1.23;;
59972;SDS011;55298;-36.624;-64.282;2024-03-25T15:15:44;2.78;;;1.50;;
59972;SDS011;55298;-36.624;-64.282;2024-03-25T15:18:13;3.42;;;1.15;;
59972;SDS011;55298;-36.624;-64.282;2024-03-25T15:20:41;3.17;;;1.65;;
59972;SDS011;55298;-36.624;-64.282;2024-03-25T15:23:09;3.65;;;1.27;;
59972;SDS011;55298;-36.624;-64.282;2024-03-25T15:25:39;2.08;;;1.17;;
59972;SDS011;55298;-36.624;-64.282;2024-03-25T15:28:07;2.67;;;1.10;;
59972;SDS011;55298;-36.624;-64.282;2024-03-25T15:30:36;3.75;;;1.45;;
59972;SDS011;55298;-36.624;-64.282;2024-03-25T15:33:04;3.72;;;1.52;;